Time;durP1;ratioP1;P1;durP2;ratioP2;P2;SDS_P1;SDS_P2;PMS_P1;PMS_P2;Temp;Humidity;BMP_temperature;BMP_pressure;BME280_temperature;BME280_humidity;BME280_pressure;Samples;Min_cycle;Max_cycle;Signal;HPM_P1;HPM_P2
2022/06/07 00:01:12;;;;;;;0.00;0.00;;;18.80;97.90;;;;;;4956309;28;20038;-74
2022/06/07 00:03:37;;;;;;;0.00;0.00;;;18.80;98.40;;;;;;4973364;28;20101;-75
2022/06/07 00:06:03;;;;;;;15.27;0.60;;;18.80;98.50;;;;;;4972908;28;20163;-75
2022/06/07 00:08:30;;;;;;;0.00;0.00;;;18.80;98.70;;;;;;4954679;28;20093;-74
2022/06/07 00:10:56;;;;;;;0.00;0.00;;;18.70;99.30;;;;;;4973201;28;20031;-74
2022/06/07 00:13:21;;;;;;;0.30;0.30;;;18.70;99.50;;;;;;4956347;28;20030;-75
2022/06/07 00:15:47;;;;;;;0.00;0.00;;;18.80;99.80;;;;;;4973697;28;20079;-75
2022/06/07 00:18:14;;;;;;;0.20;0.20;;;18.70;99.60;;;;;;4973530;28;20093;-75
2022/06/07 00:20:41;;;;;;;0.00;0.00;;;18.70;99.90;;;;;;4972818;28;20034;-75
2022/06/07 00:23:12;;;;;;;0.00;0.00;;;18.60;99.90;;;;;;4972483;28;20031;-76
2022/06/07 00:25:39;;;;;;;1.05;0.60;;;18.60;99.90;;;;;;4954785;28;20065;-75
2022/06/07 00:28:05;;;;;;;0.28;0.15;;;18.50;99.90;;;;;;4954402;28;20483;-75
2022/06/07 00:30:31;;;;;;;0.00;0.00;;;18.50;99.90;;;;;;4970567;28;20027;-75
2022/06/07 00:32:58;;;;;;;0.00;0.00;;;18.50;99.90;;;;;;4938508;28;20023;-74
2022/06/07 00:35:24;;;;;;;0.57;0.32;;;18.50;99.90;;;;;;4954542;28;20085;-75
2022/06/07 00:37:50;;;;;;;0.00;0.00;;;18.50;99.90;;;;;;4954091;28;20038;-75
2022/06/07 00:40:17;;;;;;;0.28;0.20;;;18.50;99.90;;;;;;4970442;28;20023;-75
2022/06/07 00:42:43;;;;;;;0.00;0.00;;;18.40;99.90;;;;;;4956242;28;20030;-75
2022/06/07 00:45:20;;;;;;;1.55;0.60;;;18.30;99.90;;;;;;4975474;28;20023;-75
2022/06/07 00:47:47;;;;;;;0.00;0.00;;;18.20;99.90;;;;;;4975037;28;20026;-76
2022/06/07 00:50:45;;;;;;;0.00;0.00;;;18.30;99.90;;;;;;4941394;28;20078;-75
2022/06/07 00:53:33;;;;;;;0.10;0.00;;;18.30;99.90;;;;;;4941909;28;20023;-75
2022/06/07 00:56:00;;;;;;;0.00;0.00;;;18.30;99.90;;;;;;4959325;28;20529;-76
2022/06/07 00:58:28;;;;;;;1.15;0.98;;;18.20;99.90;;;;;;4957537;28;20050;-76
2022/06/07 01:00:56;;;;;;;7.57;0.63;;;18.20;99.90;;;;;;4957465;28;20109;-75
2022/06/07 01:03:22;;;;;;;0.00;0.00;;;18.10;99.90;;;;;;4974858;28;20117;-76
2022/06/07 01:05:53;;;;;;;0.10;0.10;;;18.10;99.90;;;;;;4974662;28;20050;-75
2022/06/07 01:11:05;;;;;;;0.00;0.00;;;18.00;99.90;;;;;;4978777;28;20031;-76
2022/06/07 01:13:35;;;;;;;0.00;0.00;;;18.00;99.90;;;;;;4994255;28;20033;-75
2022/06/07 01:16:07;;;;;;;0.00;0.00;;;18.10;99.90;;;;;;4966165;28;20708;-76
2022/06/07 01:18:33;;;;;;;0.00;0.00;;;18.00;99.90;;;;;;4974181;28;20044;-76
2022/06/07 01:21:32;;;;;;;1.25;0.70;;;18.00;99.90;;;;;;4957286;28;20089;-76
2022/06/07 01:23:58;;;;;;;0.00;0.00;;;17.90;99.90;;;;;;4980347;28;20062;-76
2022/06/07 01:26:24;;;;;;;0.10;0.10;;;18.00;99.90;;;;;;4960479;28;20061;-75
2022/06/07 01:28:50;;;;;;;0.00;0.00;;;17.90;99.90;;;;;;4993105;28;20105;-76
2022/06/07 01:31:16;;;;;;;0.00;0.00;;;17.90;99.90;;;;;;4993708;28;20042;-75
2022/06/07 01:33:41;;;;;;;0.10;0.00;;;17.90;99.90;;;;;;4969923;28;20019;-75
2022/06/07 01:36:12;;;;;;;0.00;0.00;;;17.90;99.90;;;;;;4955043;29;20027;-76
2022/06/07 01:38:40;;;;;;;0.00;0.00;;;17.80;99.90;;;;;;4954312;29;20035;-76
2022/06/07 01:43:52;;;;;;;0.05;0.05;;;17.70;99.90;;;;;;4978950;28;20033;-76
2022/06/07 01:46:19;;;;;;;0.00;0.00;;;17.80;99.90;;;;;;4993511;28;20081;-75
2022/06/07 01:48:46;;;;;;;0.05;0.05;;;17.70;99.90;;;;;;4992525;28;20591;-75
2022/06/07 01:51:12;;;;;;;0.00;0.00;;;17.80;99.90;;;;;;4960212;28;20053;-75
2022/06/07 01:53:39;;;;;;;0.00;0.00;;;17.60;99.90;;;;;;4992548;28;20027;-76
2022/06/07 01:56:12;;;;;;;0.00;0.00;;;17.70;99.90;;;;;;4993398;28;20034;-76
2022/06/07 01:58:41;;;;;;;0.00;0.00;;;17.60;99.90;;;;;;4975493;28;20031;-74
2022/06/07 02:01:08;;;;;;;0.00;0.00;;;17.50;99.90;;;;;;4976430;28;20124;-75
2022/06/07 02:03:34;;;;;;;0.00;0.00;;;17.50;99.90;;;;;;4976242;28;20026;-76
2022/06/07 02:06:09;;;;;;;0.00;0.00;;;17.50;99.90;;;;;;4993368;28;20038;-75
2022/06/07 02:08:36;;;;;;;0.00;0.00;;;17.60;99.90;;;;;;4974754;28;20072;-75
2022/06/07 02:11:12;;;;;;;0.00;0.00;;;17.60;99.90;;;;;;4992642;28;20135;-75
2022/06/07 02:13:40;;;;;;;0.00;0.00;;;17.70;99.90;;;;;;4976258;28;20034;-75
2022/06/07 02:16:07;;;;;;;0.00;0.00;;;17.70;99.90;;;;;;4979336;28;20023;-75
2022/06/07 02:18:33;;;;;;;0.00;0.00;;;17.60;99.90;;;;;;4955838;28;20022;-75
2022/06/07 02:21:00;;;;;;;0.00;0.00;;;17.50;99.90;;;;;;4956288;28;20042;-75
2022/06/07 02:23:30;;;;;;;1.85;1.30;;;17.30;99.90;;;;;;4956291;28;20093;-76
2022/06/07 02:26:02;;;;;;;0.00;0.00;;;17.30;99.90;;;;;;4973583;28;20543;-75
2022/06/07 02:28:33;;;;;;;0.03;0.00;;;17.20;99.90;;;;;;4955905;28;20057;-75
2022/06/07 02:30:59;;;;;;;0.10;0.10;;;17.00;99.90;;;;;;4956174;28;20038;-76
2022/06/07 02:33:27;;;;;;;0.00;0.00;;;17.10;99.90;;;;;;4955942;28;20042;-75
2022/06/07 02:35:54;;;;;;;0.10;0.05;;;17.00;99.90;;;;;;4956066;28;20033;-76
2022/06/07 02:38:20;;;;;;;0.20;0.20;;;17.00;99.90;;;;;;4955695;28;20023;-75
2022/06/07 02:40:49;;;;;;;0.00;0.00;;;17.00;99.90;;;;;;4939470;28;20053;-75
2022/06/07 02:43:15;;;;;;;0.00;0.00;;;17.10;99.90;;;;;;4956148;28;20037;-75
2022/06/07 02:45:40;;;;;;;0.05;0.05;;;17.00;99.90;;;;;;4973269;28;20034;-75
2022/06/07 02:48:07;;;;;;;0.05;0.05;;;17.00;99.90;;;;;;4973041;28;20372;-75
2022/06/07 02:50:33;;;;;;;0.00;0.00;;;17.00;99.90;;;;;;4972072;28;20035;-76
2022/06/07 02:52:59;;;;;;;0.00;0.00;;;17.00;99.90;;;;;;4972795;28;20092;-75
2022/06/07 02:55:25;;;;;;;0.00;0.00;;;17.00;99.90;;;;;;4972561;28;20057;-76
2022/06/07 02:57:51;;;;;;;0.03;0.03;;;17.00;99.90;;;;;;4955743;28;20019;-75
2022/06/07 03:00:17;;;;;;;0.00;0.00;;;17.00;99.90;;;;;;4954961;28;20031;-75
2022/06/07 03:02:44;;;;;;;0.00;0.00;;;16.90;99.90;;;;;;4953985;28;20094;-75
2022/06/07 03:05:11;;;;;;;0.00;0.00;;;16.90;99.90;;;;;;4968970;28;20025;-74
2022/06/07 03:07:41;;;;;;;0.00;0.00;;;16.80;99.90;;;;;;4966310;28;20042;-74
2022/06/07 03:10:10;;;;;;;0.00;0.00;;;16.90;99.90;;;;;;4968446;28;20031;-75
2022/06/07 03:12:36;;;;;;;0.00;0.00;;;16.80;99.90;;;;;;4974430;28;20524;-75
2022/06/07 03:15:03;;;;;;;0.00;0.00;;;16.80;99.90;;;;;;4969112;28;20030;-75
2022/06/07 03:17:29;;;;;;;0.08;0.08;;;16.80;99.90;;;;;;4989053;28;20034;-75
2022/06/07 03:19:55;;;;;;;0.00;0.00;;;16.80;99.90;;;;;;4973630;28;20068;-75
2022/06/07 03:22:21;;;;;;;0.00;0.00;;;16.80;99.90;;;;;;4991667;28;20031;-75
2022/06/07 03:24:47;;;;;;;0.00;0.00;;;16.80;99.90;;;;;;4967376;28;20494;-75
2022/06/07 03:27:13;;;;;;;0.00;0.00;;;16.50;99.90;;;;;;4987409;28;20030;-75
2022/06/07 03:29:39;;;;;;;0.75;0.47;;;16.50;99.90;;;;;;4971592;28;20034;-75
2022/06/07 03:32:08;;;;;;;0.00;0.00;;;16.50;99.90;;;;;;4972074;28;20105;-75
2022/06/07 03:34:35;;;;;;;0.08;0.08;;;16.60;99.90;;;;;;4971840;28;20738;-75
2022/06/07 03:37:02;;;;;;;0.00;0.00;;;16.60;99.90;;;;;;4955185;28;20039;-76
2022/06/07 03:39:28;;;;;;;0.00;0.00;;;16.60;99.90;;;;;;4971334;28;20081;-76
2022/06/07 03:41:54;;;;;;;0.00;0.00;;;16.70;99.90;;;;;;4978813;28;20534;-75
2022/06/07 03:44:19;;;;;;;0.00;0.00;;;16.70;99.90;;;;;;4991229;28;20510;-74
2022/06/07 03:46:47;;;;;;;0.00;0.00;;;16.60;99.90;;;;;;4991462;28;20106;-75
2022/06/07 03:49:13;;;;;;;0.00;0.00;;;16.60;99.90;;;;;;4990596;28;20038;-75
2022/06/07 03:51:39;;;;;;;0.00;0.00;;;16.70;99.90;;;;;;4974152;28;20097;-76
2022/06/07 03:54:06;;;;;;;0.00;0.00;;;16.70;99.90;;;;;;4950707;28;20041;-76
2022/06/07 03:56:33;;;;;;;0.05;0.00;;;16.50;99.90;;;;;;4964616;28;20027;-76
2022/06/07 03:58:59;;;;;;;0.00;0.00;;;16.50;99.90;;;;;;4953120;28;20027;-78
2022/06/07 04:01:27;;;;;;;0.00;0.00;;;16.40;99.90;;;;;;4954759;28;20081;-73
2022/06/07 04:04:01;;;;;;;0.00;0.00;;;16.40;99.90;;;;;;4950341;28;20066;-74
2022/06/07 04:06:37;;;;;;;0.00;0.00;;;16.60;99.90;;;;;;4951641;28;20072;-73
2022/06/07 04:09:03;;;;;;;0.20;0.08;;;16.50;99.90;;;;;;4933873;29;20055;-62
2022/06/07 04:11:29;;;;;;;0.00;0.00;;;16.30;99.90;;;;;;4951773;28;20038;-63
2022/06/07 04:13:57;;;;;;;0.10;0.10;;;16.30;99.90;;;;;;4952099;29;20114;-63
2022/06/07 04:16:27;;;;;;;0.00;0.00;;;16.40;99.90;;;;;;4956692;28;20110;-63
2022/06/07 04:18:53;;;;;;;0.00;0.00;;;16.30;99.90;;;;;;4974767;28;20385;-63
2022/06/07 04:21:21;;;;;;;0.00;0.00;;;16.20;99.90;;;;;;4975077;28;20049;-63
2022/06/07 04:23:47;;;;;;;0.30;0.30;;;16.20;99.90;;;;;;4961178;28;20044;-64
2022/06/07 04:26:18;;;;;;;0.00;0.00;;;16.10;99.90;;;;;;4957825;28;20034;-63
2022/06/07 04:28:44;;;;;;;0.45;0.45;;;16.10;99.90;;;;;;4957385;28;20513;-63
2022/06/07 04:31:13;;;;;;;0.30;0.22;;;16.00;99.90;;;;;;4989620;23;20122;-61
2022/06/07 04:33:40;;;;;;;0.10;0.10;;;16.10;99.90;;;;;;4984363;28;20391;-61
2022/06/07 04:36:19;;;;;;;0.00;0.00;;;16.20;99.90;;;;;;4974857;28;20489;-62
2022/06/07 04:38:47;;;;;;;0.25;0.20;;;16.30;99.90;;;;;;4957088;28;20430;-62
2022/06/07 04:41:16;;;;;;;0.10;0.10;;;16.50;99.90;;;;;;4952367;29;20475;-62
2022/06/07 04:43:42;;;;;;;0.10;0.10;;;16.70;99.90;;;;;;4955559;28;20031;-63
2022/06/07 04:46:15;;;;;;;0.00;0.00;;;16.70;99.90;;;;;;4954570;29;20039;-63
2022/06/07 04:48:43;;;;;;;0.20;0.20;;;16.70;99.90;;;;;;4954810;28;20123;-63
2022/06/07 04:51:16;;;;;;;0.00;0.00;;;16.80;99.90;;;;;;4954076;28;20039;-62
2022/06/07 04:53:43;;;;;;;0.38;0.38;;;16.80;99.90;;;;;;4955050;28;20035;-62
2022/06/07 04:56:16;;;;;;;0.08;0.08;;;16.90;99.90;;;;;;4954605;29;20383;-62
2022/06/07 04:58:42;;;;;;;0.00;0.00;;;16.70;99.90;;;;;;4937308;29;20031;-62
2022/06/07 05:01:18;;;;;;;0.10;0.10;;;16.80;99.90;;;;;;4937889;29;20050;-62
2022/06/07 05:03:45;;;;;;;0.00;0.00;;;16.80;99.90;;;;;;4938755;29;20045;-63
2022/06/07 05:06:33;;;;;;;0.20;0.20;;;17.00;99.90;;;;;;4954682;29;20030;-62
2022/06/07 05:09:09;;;;;;;0.35;0.22;;;16.80;99.90;;;;;;4954460;29;20062;-62
2022/06/07 05:11:35;;;;;;;0.00;0.00;;;16.80;99.90;;;;;;4922285;29;20229;-62
2022/06/07 05:14:03;;;;;;;0.00;0.00;;;16.70;99.90;;;;;;4954620;29;20519;-62
2022/06/07 05:16:29;;;;;;;0.00;0.00;;;16.80;99.90;;;;;;4943818;29;20032;-62
2022/06/07 05:18:55;;;;;;;0.32;0.15;;;16.80;99.90;;;;;;4937057;29;20046;-63
2022/06/07 05:21:24;;;;;;;0.08;0.08;;;16.70;99.90;;;;;;4954693;28;20032;-61
2022/06/07 05:23:52;;;;;;;6.03;0.52;;;16.80;99.90;;;;;;4937450;29;20031;-62
2022/06/07 05:26:47;;;;;;;1.08;0.35;;;16.90;99.90;;;;;;4954645;28;20702;-62
2022/06/07 05:29:26;;;;;;;0.00;0.00;;;17.10;99.90;;;;;;4951345;28;20403;-63
2022/06/07 05:31:52;;;;;;;0.00;0.00;;;17.30;99.90;;;;;;4953508;28;20098;-62
2022/06/07 05:34:18;;;;;;;0.00;0.00;;;17.10;99.90;;;;;;4954631;28;20392;-64
2022/06/07 05:36:44;;;;;;;0.45;0.28;;;17.00;99.90;;;;;;4954543;29;20038;-81
2022/06/07 05:39:22;;;;;;;0.03;0.03;;;17.10;99.90;;;;;;4936028;29;20111;-81
2022/06/07 05:41:49;;;;;;;1.17;0.52;;;17.20;99.90;;;;;;4953273;28;20046;-81
2022/06/07 05:44:15;;;;;;;0.00;0.00;;;17.30;99.90;;;;;;4951747;28;20031;-80
2022/06/07 05:46:42;;;;;;;0.00;0.00;;;17.40;99.90;;;;;;4936779;29;20031;-79
2022/06/07 05:49:10;;;;;;;0.00;0.00;;;17.40;99.90;;;;;;4936732;29;20086;-81
2022/06/07 05:51:37;;;;;;;0.15;0.13;;;17.50;99.90;;;;;;4937052;29;20113;-79
2022/06/07 05:54:03;;;;;;;0.00;0.00;;;17.60;99.90;;;;;;4954789;29;20034;-82
2022/06/07 05:56:28;;;;;;;0.00;0.00;;;17.80;99.90;;;;;;4955339;28;20031;-81
2022/06/07 05:58:54;;;;;;;0.00;0.00;;;17.90;99.90;;;;;;4953639;29;20515;-81
2022/06/07 06:01:20;;;;;;;0.82;0.38;;;17.90;99.90;;;;;;5046801;23;20783;-85
2022/06/07 06:03:46;;;;;;;7.55;2.20;;;17.90;99.90;;;;;;4974384;28;20052;-83
2022/06/07 06:06:17;;;;;;;0.00;0.00;;;18.10;99.90;;;;;;5007359;28;20034;-83
2022/06/07 06:11:32;;;;;;;0.00;0.00;;;18.10;99.90;;;;;;4990581;28;20033;-83
2022/06/07 06:13:59;;;;;;;0.00;0.00;;;18.20;99.90;;;;;;4942039;28;20042;-83
2022/06/07 06:16:30;;;;;;;0.10;0.10;;;18.20;99.90;;;;;;4956342;28;20032;-83
2022/06/07 06:18:58;;;;;;;0.13;0.13;;;18.30;99.90;;;;;;4973738;28;20037;-82
2022/06/07 06:21:33;;;;;;;0.00;0.00;;;18.40;99.90;;;;;;4974008;28;20038;-83
2022/06/07 06:24:00;;;;;;;0.00;0.00;;;18.50;99.90;;;;;;4970240;28;20042;-83
2022/06/07 06:26:42;;;;;;;0.00;0.00;;;18.50;99.90;;;;;;4956734;28;20097;-83
2022/06/07 06:29:37;;;;;;;0.65;0.35;;;18.20;99.90;;;;;;4959050;28;20502;-84
2022/06/07 06:32:09;;;;;;;0.00;0.00;;;18.20;99.90;;;;;;4973277;28;20484;-82
2022/06/07 06:34:35;;;;;;;0.10;0.10;;;18.40;99.90;;;;;;4973571;28;20110;-82
2022/06/07 06:37:07;;;;;;;0.00;0.00;;;18.40;99.90;;;;;;4973940;28;20549;-88
2022/06/07 06:39:33;;;;;;;0.00;0.00;;;18.20;99.90;;;;;;4955520;28;20498;-83
2022/06/07 06:41:59;;;;;;;1.10;0.65;;;18.30;99.90;;;;;;4973359;28;20140;-83
2022/06/07 06:44:40;;;;;;;1.35;1.10;;;18.30;99.90;;;;;;4956511;28;20039;-84
2022/06/07 06:47:07;;;;;;;0.25;0.20;;;18.40;99.90;;;;;;4956511;28;20026;-83
2022/06/07 06:49:36;;;;;;;0.13;0.10;;;18.50;99.90;;;;;;4955095;28;20567;-84
2022/06/07 06:52:04;;;;;;;0.10;0.10;;;18.60;99.90;;;;;;4972926;28;20026;-83
2022/06/07 06:54:33;;;;;;;0.55;0.40;;;18.60;99.90;;;;;;4955840;28;20027;-83
2022/06/07 06:56:59;;;;;;;0.00;0.00;;;18.70;99.90;;;;;;4973281;28;20130;-81
2022/06/07 06:59:25;;;;;;;0.08;0.08;;;18.80;99.90;;;;;;4955542;28;20031;-82
2022/06/07 07:01:51;;;;;;;0.00;0.00;;;18.90;99.90;;;;;;4955619;28;20041;-82
2022/06/07 07:04:22;;;;;;;0.00;0.00;;;18.90;99.90;;;;;;4956221;28;20459;-84
2022/06/07 07:10:13;;;;;;;0.10;0.08;;;18.80;99.90;;;;;;4972767;28;20038;-83
2022/06/07 07:12:40;;;;;;;0.00;0.00;;;18.90;99.90;;;;;;4972721;28;20051;-84
2022/06/07 07:15:47;;;;;;;1.70;0.57;;;19.10;99.90;;;;;;4959206;28;20039;-84
2022/06/07 07:18:13;;;;;;;0.00;0.00;;;19.20;99.90;;;;;;4955716;28;20505;-82
2022/06/07 07:20:41;;;;;;;0.10;0.10;;;19.20;99.90;;;;;;4954827;28;20035;-84
2022/06/07 07:23:09;;;;;;;0.03;0.03;;;19.20;99.90;;;;;;4972536;28;20022;-83
2022/06/07 07:25:35;;;;;;;0.47;0.30;;;19.30;99.90;;;;;;4971099;28;20027;-83
2022/06/07 07:28:01;;;;;;;0.00;0.00;;;19.10;99.90;;;;;;4955115;28;20162;-82
2022/06/07 07:30:27;;;;;;;0.00;0.00;;;19.20;99.90;;;;;;4954495;28;20102;-82
2022/06/07 07:32:53;;;;;;;0.10;0.10;;;19.20;99.90;;;;;;4955195;28;20097;-82
2022/06/07 07:36:14;;;;;;;;;;;;;;;;;;;;;
2022/06/07 07:53:11;;;;;;;0.08;0.08;;;19.40;99.90;;;;;;5557880;23;20149;-83
2022/06/07 07:55:46;;;;;;;0.00;0.00;;;19.40;99.90;;;;;;4993681;28;20113;-83
2022/06/07 07:58:12;;;;;;;0.00;0.00;;;19.60;99.90;;;;;;5010898;28;20029;-83
2022/06/07 08:00:44;;;;;;;0.10;0.10;;;19.60;99.90;;;;;;4976675;28;20132;-83
2022/06/07 08:39:08;;;;;;;;;;;;;;;;;;;;;
2022/06/07 09:00:49;;;;;;;;;;;;;;;;;;;;;
2022/06/07 09:04:08;;;;;;;0.00;0.00;;;20.60;97.40;;;;;;4960126;28;20035;-85
2022/06/07 09:07:00;;;;;;;0.00;0.00;;;20.60;97.70;;;;;;4975316;28;20035;-84
2022/06/07 09:17:45;;;;;;;0.15;0.05;;;20.80;97.60;;;;;;4938217;28;20043;-85
2022/06/07 09:29:43;;;;;;;0.00;0.00;;;21.00;97.20;;;;;;4733380;30;20468;-86
2022/06/07 09:32:50;;;;;;;0.25;0.25;;;21.20;97.00;;;;;;4733007;30;20049;-85
2022/06/07 09:35:20;;;;;;;0.00;0.00;;;21.30;97.30;;;;;;4826719;29;20471;-83
2022/06/07 09:37:53;;;;;;;0.00;0.00;;;21.50;96.30;;;;;;4877240;29;20048;-83
2022/06/07 09:40:33;;;;;;;0.00;0.00;;;21.50;96.10;;;;;;4876626;29;20287;-82
2022/06/07 09:43:46;;;;;;;0.00;0.00;;;21.70;96.70;;;;;;4877486;29;20076;-83
2022/06/07 09:47:30;;;;;;;0.00;0.00;;;21.80;96.30;;;;;;4862516;29;20056;-84
2022/06/07 09:50:05;;;;;;;0.00;0.00;;;21.90;96.20;;;;;;4869989;29;20040;-83
2022/06/07 09:52:45;;;;;;;0.00;0.00;;;22.10;95.70;;;;;;4895684;29;20179;-84
2022/06/07 09:56:22;;;;;;;0.00;0.00;;;22.20;94.80;;;;;;4880865;29;20043;-85
2022/06/07 09:59:37;;;;;;;4.55;0.70;;;22.10;95.10;;;;;;4859044;29;20443;-85
2022/06/07 10:02:47;;;;;;;0.00;0.00;;;22.10;95.50;;;;;;4876291;29;20149;-83
2022/06/07 10:05:40;;;;;;;0.00;0.00;;;22.20;94.30;;;;;;4854218;29;20136;-84
2022/06/07 10:08:46;;;;;;;0.08;0.08;;;22.40;94.90;;;;;;4876700;29;20127;-84
2022/06/07 10:11:56;;;;;;;0.00;0.00;;;22.30;95.00;;;;;;4876882;29;20040;-84
2022/06/07 10:33:11;;;;;;;0.40;0.38;;;22.60;92.00;;;;;;5262528;23;20055;-75
2022/06/07 10:35:57;;;;;;;0.00;0.00;;;22.60;93.10;;;;;;4953076;28;20047;-75
2022/06/07 10:38:49;;;;;;;1.33;0.55;;;23.00;92.10;;;;;;4952592;28;20035;-75
2022/06/07 10:41:39;;;;;;;0.00;0.00;;;22.90;91.90;;;;;;4949346;28;20035;-75
2022/06/07 10:44:24;;;;;;;0.13;0.13;;;23.00;91.10;;;;;;4948133;29;20025;-75
2022/06/07 10:46:50;;;;;;;0.45;0.38;;;23.00;91.30;;;;;;4947030;29;20447;-75
2022/06/07 10:50:02;;;;;;;0.00;0.00;;;23.00;91.60;;;;;;4933554;29;20043;-78
2022/06/07 10:53:06;;;;;;;0.13;0.13;;;23.00;91.70;;;;;;4893779;29;20409;-74
2022/06/07 10:55:59;;;;;;;0.00;0.00;;;23.10;91.50;;;;;;4943014;29;20702;-75
2022/06/07 10:58:49;;;;;;;0.03;0.03;;;22.90;92.70;;;;;;4952402;29;20136;-73
2022/06/07 11:01:35;;;;;;;0.00;0.00;;;22.80;92.20;;;;;;4951965;29;20035;-74
2022/06/07 11:10:27;;;;;;;0.08;0.05;;;22.70;91.40;;;;;;4951149;29;20062;-76
2022/06/07 11:13:42;;;;;;;0.00;0.00;;;22.70;90.70;;;;;;4951723;29;20035;-76
2022/06/07 11:16:29;;;;;;;0.00;0.00;;;22.50;90.80;;;;;;4961010;28;20039;-76
2022/06/07 11:18:59;;;;;;;0.00;0.00;;;22.50;91.10;;;;;;4970279;28;20027;-76
2022/06/07 11:21:42;;;;;;;0.22;0.22;;;22.80;91.40;;;;;;4970974;28;20031;-75
2022/06/07 11:24:25;;;;;;;0.32;0.30;;;22.80;89.20;;;;;;4968942;28;20130;-76
2022/06/07 11:26:50;;;;;;;0.70;0.08;;;22.80;90.10;;;;;;4951157;28;20031;-75
2022/06/07 11:29:32;;;;;;;0.00;0.00;;;22.70;91.60;;;;;;4952354;29;20035;-75
2022/06/07 11:32:03;;;;;;;0.00;0.00;;;22.70;91.70;;;;;;4951111;29;20117;-75
2022/06/07 11:34:34;;;;;;;;;;;22.80;90.80;;;;;;4952136;29;20039;-75
2022/06/07 11:37:08;;;;;;;;;;;22.90;90.50;;;;;;4953183;28;19911;-76
2022/06/07 11:39:40;;;;;;;0.30;0.30;;;23.00;90.80;;;;;;4952229;28;19933;-75
2022/06/07 11:42:29;;;;;;;0.00;0.00;;;22.90;90.70;;;;;;4952489;29;20106;-76
2022/06/07 11:45:03;;;;;;;1.70;0.80;;;22.90;91.00;;;;;;4946976;28;20028;-76
2022/06/07 11:48:09;;;;;;;3.05;0.95;;;22.90;91.20;;;;;;4933505;29;20098;-75
2022/06/07 11:51:18;;;;;;;0.20;0.20;;;23.20;89.70;;;;;;4915326;29;20039;-75
2022/06/07 11:53:59;;;;;;;0.00;0.00;;;23.10;89.50;;;;;;4948769;29;20046;-75
2022/06/07 11:56:48;;;;;;;0.00;0.00;;;23.20;91.80;;;;;;4951016;29;20587;-75
2022/06/07 11:59:16;;;;;;;0.00;0.00;;;23.20;91.60;;;;;;4952157;28;20218;-75
2022/06/07 12:01:59;;;;;;;3.63;1.48;;;23.30;91.60;;;;;;4951821;29;20039;-75
2022/06/07 12:04:43;;;;;;;0.10;0.10;;;23.20;91.90;;;;;;4951332;29;20027;-74
2022/06/07 12:07:32;;;;;;;0.00;0.00;;;23.60;90.50;;;;;;4952232;28;20039;-75
2022/06/07 12:10:17;;;;;;;6.93;1.65;;;23.70;90.50;;;;;;4951220;28;20031;-75
2022/06/07 12:13:03;;;;;;;0.65;0.40;;;23.50;89.70;;;;;;4950795;29;20039;-75
2022/06/07 12:15:31;;;;;;;0.00;0.00;;;23.30;90.10;;;;;;4954594;28;20130;-75
2022/06/07 12:18:06;;;;;;;0.00;0.00;;;23.50;90.70;;;;;;4961449;28;20082;-74
2022/06/07 12:20:40;;;;;;;0.00;0.00;;;23.60;89.90;;;;;;4951493;28;20031;-75
2022/06/07 12:23:31;;;;;;;0.00;0.00;;;23.70;90.20;;;;;;4952385;28;20067;-75
2022/06/07 12:26:08;;;;;;;0.00;0.00;;;23.90;90.60;;;;;;4950760;29;20035;-75
2022/06/07 12:28:39;;;;;;;0.73;0.73;;;23.80;89.50;;;;;;4935039;29;20062;-75
2022/06/07 12:31:14;;;;;;;0.10;0.10;;;23.90;87.50;;;;;;4950594;29;20058;-75
2022/06/07 12:33:40;;;;;;;0.00;0.00;;;24.00;87.70;;;;;;4952046;28;20098;-75
2022/06/07 12:36:21;;;;;;;0.32;0.30;;;23.80;88.00;;;;;;4951449;28;20027;-75
2022/06/07 12:38:48;;;;;;;0.10;0.10;;;23.80;87.00;;;;;;4952299;28;20037;-75
2022/06/07 12:41:23;;;;;;;0.00;0.00;;;23.90;89.20;;;;;;4938244;29;20059;-75
2022/06/07 12:43:57;;;;;;;3.30;2.55;;;23.80;88.90;;;;;;4954737;29;20027;-75
2022/06/07 12:46:28;;;;;;;0.00;0.00;;;23.60;89.30;;;;;;4954536;29;20037;-75
2022/06/07 12:48:57;;;;;;;0.00;0.00;;;23.30;90.80;;;;;;4953871;29;20028;-75
2022/06/07 12:51:23;;;;;;;0.00;0.00;;;23.40;90.50;;;;;;4938668;29;20086;-75
2022/06/07 12:53:58;;;;;;;0.00;0.00;;;23.30;89.40;;;;;;4955744;28;20443;-74
2022/06/07 12:56:28;;;;;;;0.00;0.00;;;23.30;88.20;;;;;;4954189;29;20031;-75
2022/06/07 12:58:56;;;;;;;0.47;0.43;;;23.30;88.80;;;;;;4953771;29;20031;-75
2022/06/07 13:01:32;;;;;;;0.03;0.03;;;23.30;88.90;;;;;;4955512;28;20035;-75
2022/06/07 13:04:33;;;;;;;0.00;0.00;;;23.40;87.50;;;;;;4954446;29;20122;-75
2022/06/07 13:07:07;;;;;;;0.20;0.10;;;23.50;87.90;;;;;;4954558;29;20106;-75
2022/06/07 13:09:33;;;;;;;0.15;0.15;;;23.60;87.60;;;;;;4954457;28;20082;-75
2022/06/07 13:12:00;;;;;;;0.00;0.00;;;23.10;89.10;;;;;;4955651;28;20031;-76
2022/06/07 13:14:26;;;;;;;2.80;0.90;;;22.90;90.30;;;;;;4953810;29;20059;-75
2022/06/07 13:16:52;;;;;;;0.00;0.00;;;22.90;91.10;;;;;;4967823;28;20035;-75
2022/06/07 13:19:25;;;;;;;0.00;0.00;;;22.90;90.80;;;;;;4972285;28;20491;-75
2022/06/07 13:21:56;;;;;;;0.10;0.10;;;22.70;90.90;;;;;;4972960;28;20043;-76
2022/06/07 13:24:29;;;;;;;0.00;0.00;;;22.90;91.40;;;;;;4968743;28;20039;-76
2022/06/07 13:27:01;;;;;;;0.00;0.00;;;22.90;92.10;;;;;;4953530;29;20510;-75
2022/06/07 13:29:35;;;;;;;0.28;0.28;;;22.80;91.50;;;;;;4952904;29;20540;-75
2022/06/07 13:32:20;;;;;;;0.00;0.00;;;23.00;91.70;;;;;;4953489;29;20396;-76
2022/06/07 13:35:02;;;;;;;0.00;0.00;;;23.00;91.30;;;;;;4953796;29;20058;-75
2022/06/07 13:37:31;;;;;;;0.20;0.10;;;22.90;91.40;;;;;;4955213;28;20394;-76
2022/06/07 13:40:15;;;;;;;11.00;1.05;;;23.30;91.50;;;;;;4952616;29;20035;-76
2022/06/07 13:42:43;;;;;;;0.00;0.00;;;23.50;91.00;;;;;;4954405;29;20071;-76
2022/06/07 13:45:12;;;;;;;1.02;0.43;;;23.30;91.70;;;;;;4937512;29;20118;-75
2022/06/07 13:48:06;;;;;;;0.20;0.20;;;23.60;90.90;;;;;;4954670;29;20035;-75
2022/06/07 13:53:55;;;;;;;0.00;0.00;;;24.00;90.90;;;;;;4935032;29;20452;-75
2022/06/07 13:56:22;;;;;;;0.00;0.00;;;23.90;90.60;;;;;;4953003;29;20035;-75
2022/06/07 13:58:54;;;;;;;0.00;0.00;;;23.90;91.30;;;;;;4953459;28;20592;-77
2022/06/07 14:01:29;;;;;;;0.10;0.10;;;23.70;90.70;;;;;;4954123;28;20046;-76
2022/06/07 14:04:03;;;;;;;0.00;0.00;;;23.60;90.80;;;;;;4952927;29;20146;-76
2022/06/07 14:06:36;;;;;;;0.17;0.10;;;23.50;90.60;;;;;;4953094;28;20034;-76
2022/06/07 14:09:19;;;;;;;0.00;0.00;;;23.40;91.20;;;;;;4951922;29;20157;-76
2022/06/07 14:11:46;;;;;;;0.30;0.20;;;23.30;91.70;;;;;;4954133;28;20023;-77
2022/06/07 14:14:12;;;;;;;0.00;0.00;;;23.30;91.60;;;;;;4952632;29;20031;-77
2022/06/07 14:16:45;;;;;;;0.15;0.15;;;23.20;91.50;;;;;;4965898;28;20057;-76
2022/06/07 14:19:21;;;;;;;0.00;0.00;;;23.30;91.70;;;;;;4955533;28;20043;-77
2022/06/07 14:21:49;;;;;;;0.00;0.00;;;23.50;91.20;;;;;;4972072;28;20479;-76
2022/06/07 14:24:21;;;;;;;0.00;0.00;;;23.80;90.80;;;;;;4968822;28;20035;-77
2022/06/07 14:26:49;;;;;;;0.52;0.52;;;24.10;90.60;;;;;;4937195;29;20035;-77
2022/06/07 14:29:15;;;;;;;0.00;0.00;;;24.20;90.50;;;;;;4951739;29;20030;-77
2022/06/07 14:31:43;;;;;;;0.00;0.00;;;24.30;90.20;;;;;;4952330;29;20054;-77
2022/06/07 14:34:22;;;;;;;0.00;0.00;;;24.60;89.10;;;;;;4952210;29;20039;-77
2022/06/07 14:36:52;;;;;;;0.00;0.00;;;25.10;88.80;;;;;;4953293;28;20046;-76
2022/06/07 14:39:20;;;;;;;0.00;0.00;;;25.10;89.20;;;;;;4952776;28;20799;-76
2022/06/07 14:41:47;;;;;;;0.00;0.00;;;24.90;89.10;;;;;;4952243;29;20035;-77
2022/06/07 14:44:15;;;;;;;0.08;0.08;;;24.90;89.90;;;;;;4953417;28;20031;-75
2022/06/07 14:46:43;;;;;;;0.00;0.00;;;24.90;88.80;;;;;;4953464;28;20031;-75
2022/06/07 14:49:24;;;;;;;0.00;0.00;;;24.70;89.70;;;;;;4951520;29;20034;-75
2022/06/07 14:51:52;;;;;;;0.00;0.00;;;24.30;90.40;;;;;;4936686;29;20063;-75
2022/06/07 14:54:26;;;;;;;0.00;0.00;;;24.00;90.70;;;;;;4951794;29;20046;-75
2022/06/07 14:56:52;;;;;;;0.00;0.00;;;23.80;90.40;;;;;;4953042;28;20772;-76
2022/06/07 14:59:20;;;;;;;0.03;0.00;;;23.80;90.80;;;;;;4952524;28;20176;-76
2022/06/07 15:01:53;;;;;;;0.00;0.00;;;23.90;90.70;;;;;;4952901;28;20234;-76
2022/06/07 15:04:39;;;;;;;0.00;0.00;;;23.90;90.40;;;;;;4953112;28;20035;-76
2022/06/07 15:07:29;;;;;;;0.00;0.00;;;23.70;90.40;;;;;;4952404;28;20031;-75
2022/06/07 15:09:55;;;;;;;0.10;0.10;;;23.70;90.70;;;;;;4951244;28;20137;-75
2022/06/07 15:12:23;;;;;;;0.65;0.63;;;23.60;90.40;;;;;;4951601;28;20043;-75
2022/06/07 15:14:51;;;;;;;0.00;0.00;;;23.60;90.70;;;;;;4953152;28;20074;-75
2022/06/07 15:17:40;;;;;;;0.00;0.00;;;23.80;91.30;;;;;;4953049;29;20599;-77
2022/06/07 15:20:15;;;;;;;0.17;0.13;;;24.00;91.10;;;;;;4951420;28;20477;-74
2022/06/07 15:22:40;;;;;;;0.00;0.00;;;23.80;91.30;;;;;;4944367;29;20035;-74
2022/06/07 15:25:13;;;;;;;0.03;0.03;;;23.50;93.40;;;;;;4951062;29;20476;-74
2022/06/07 15:27:39;;;;;;;0.10;0.10;;;23.40;93.80;;;;;;4952384;28;20070;-75
2022/06/07 15:30:06;;;;;;;0.00;0.00;;;23.10;94.70;;;;;;4951483;28;20075;-75